createdAt,value
2019-06-20T00:06:08.238Z,100246.80
2019-06-20T00:15:09.407Z,100248.88
2019-06-20T00:23:28.040Z,100273.73
2019-06-20T00:32:17.123Z,100273.45
2019-06-20T00:40:35.783Z,100241.45
2019-06-20T00:49:24.996Z,100201.53
2019-06-20T00:57:43.691Z,100166.14
2019-06-20T01:06:29.530Z,100138.08
2019-06-20T01:14:48.342Z,100148.44
2019-06-20T01:23:49.800Z,100232.02
2019-06-20T01:32:08.486Z,100240.23
2019-06-20T01:40:51.368Z,100237.95
2019-06-20T01:49:28.576Z,100250.86
2019-06-20T01:57:47.637Z,100249.76
2019-06-20T02:06:06.388Z,100253.58
2019-06-20T02:14:25.107Z,100245.03
2019-06-20T02:22:43.762Z,100248.52
2019-06-20T02:31:02.560Z,100263.36
2019-06-20T02:39:21.841Z,100233.02
2019-06-20T02:47:40.512Z,100232.48
2019-06-20T02:55:59.218Z,100238.75
2019-06-20T03:04:17.920Z,100266.07
2019-06-20T03:13:25.419Z,100295.91
2019-06-20T03:21:44.207Z,100305.14
2019-06-20T03:30:45.488Z,100379.36
2019-06-20T03:39:05.980Z,100356.69
2019-06-20T03:47:25.071Z,100324.96
2019-06-20T03:55:43.868Z,100311.87
2019-06-20T04:04:02.614Z,100297.63
2019-06-20T04:12:21.341Z,100316.88
2019-06-20T04:20:40.459Z,100308.15
2019-06-20T04:28:59.145Z,100294.88
2019-06-20T04:37:18.131Z,100307.43
2019-06-20T04:45:42.884Z,100304.27
2019-06-20T04:54:01.574Z,100336.94
2019-06-20T05:02:34.396Z,100351.73
2019-06-20T05:10:53.068Z,100346.83
2019-06-20T05:19:11.759Z,100321.34
2019-06-20T05:27:30.847Z,100350.56
2019-06-20T05:35:49.633Z,100356.67
2019-06-20T05:44:08.417Z,100342.60
2019-06-20T05:52:27.152Z,100308.98
2019-06-20T06:00:46.267Z,100294.55
2019-06-20T06:09:06.674Z,100340.86
2019-06-20T06:17:25.372Z,100367.22
2019-06-20T06:25:44.347Z,100426.33
2019-06-20T06:34:03.111Z,100498.44
2019-06-20T06:42:22.303Z,100550.39
2019-06-20T06:50:41.009Z,100576.23
2019-06-20T06:59:48.395Z,100557.99
2019-06-20T07:08:07.035Z,100561.63
2019-06-20T07:16:25.719Z,100566.55
2019-06-20T07:24:44.387Z,100542.69
2019-06-20T07:33:03.188Z,100520.53
2019-06-20T07:41:22.209Z,100531.05
2019-06-20T07:49:41.872Z,100525.13
2019-06-20T07:58:00.834Z,100509.38
2019-06-20T08:06:43.767Z,100515.57
2019-06-20T08:15:14.411Z,100516.80
2019-06-20T08:23:23.195Z,100507.56
2019-06-20T08:32:06.622Z,100502.67
2019-06-20T08:40:59.055Z,100502.38
2019-06-20T08:49:18.890Z,100507.58
2019-06-20T08:57:37.850Z,100513.88
2019-06-20T09:05:57.150Z,100523.06
2019-06-20T09:14:16.939Z,100539.45
2019-06-20T09:22:35.711Z,100532.07
2019-06-20T09:30:55.201Z,100530.45
2019-06-20T09:39:13.891Z,100538.62
2019-06-20T09:47:32.597Z,100548.76
2019-06-20T09:55:51.791Z,100554.72
2019-06-20T10:04:10.751Z,100562.02
2019-06-20T10:12:29.441Z,100568.94
2019-06-20T10:20:48.855Z,100575.62
2019-06-20T10:29:07.801Z,100582.25
2019-06-20T10:37:26.712Z,100581.98
2019-06-20T10:45:47.415Z,100587.94
2019-06-20T10:54:06.627Z,100587.45
2019-06-20T11:02:25.980Z,100585.80
2019-06-20T11:11:04.520Z,100595.89
2019-06-20T11:19:23.834Z,100587.42
2019-06-20T11:27:44.781Z,100584.40
2019-06-20T11:36:04.156Z,100576.67
2019-06-20T11:44:23.142Z,100577.56
2019-06-20T11:52:45.254Z,100581.73
2019-06-20T12:01:04.127Z,100580.17
2019-06-20T12:09:23.133Z,100595.87
2019-06-20T12:17:43.312Z,100579.16
2019-06-20T12:26:02.368Z,100577.75
2019-06-20T12:34:21.393Z,100565.66
2019-06-20T12:42:49.228Z,100563.50
2019-06-20T12:51:08.221Z,100554.00
2019-06-20T12:59:41.360Z,100552.73
2019-06-20T13:08:15.702Z,100552.42
2019-06-20T13:16:34.398Z,100540.83
2019-06-20T13:24:53.086Z,100535.89
2019-06-20T13:33:12.236Z,100530.91
2019-06-20T13:41:30.927Z,100523.11
2019-06-20T13:49:50.137Z,100537.30
2019-06-20T13:58:09.010Z,100556.22
2019-06-20T14:06:27.741Z,100567.56
2019-06-20T14:14:47.787Z,100568.22
2019-06-20T14:23:07.022Z,100570.23
2019-06-20T14:31:25.741Z,100554.86
2019-06-20T14:39:45.003Z,100575.42
2019-06-20T14:48:04.682Z,100551.91
2019-06-20T14:56:25.081Z,100555.84
2019-06-20T15:04:44.912Z,100561.02
2019-06-20T15:13:04.370Z,100561.02
2019-06-20T15:21:23.197Z,100558.45
2019-06-20T15:29:42.024Z,100554.55
2019-06-20T15:38:02.573Z,100544.54
2019-06-20T15:46:21.540Z,100551.12
2019-06-20T15:54:42.807Z,100549.98
2019-06-20T16:03:09.907Z,100544.92
2019-06-20T16:11:21.435Z,100534.57
2019-06-20T16:19:40.131Z,100528.80
2019-06-20T16:27:58.890Z,100515.19
2019-06-20T16:36:17.600Z,100509.51
2019-06-20T16:44:36.471Z,100517.95
2019-06-20T16:52:55.301Z,100510.28
2019-06-20T17:01:14.295Z,100536.18
2019-06-20T17:09:33.510Z,100543.58
2019-06-20T17:17:52.599Z,100547.24
2019-06-20T17:26:11.687Z,100548.12
2019-06-20T17:34:30.384Z,100548.12
2019-06-20T17:42:49.243Z,100564.41
2019-06-20T17:51:08.579Z,100566.91
2019-06-20T17:59:27.230Z,100573.85
2019-06-20T18:07:45.919Z,100582.62
2019-06-20T18:16:04.765Z,100586.28
2019-06-20T18:24:23.551Z,100601.90
2019-06-20T18:32:42.342Z,100595.98
2019-06-20T18:41:01.133Z,100591.80
2019-06-20T18:49:19.882Z,100612.98
2019-06-20T18:57:38.821Z,100632.75
2019-06-20T19:05:59.239Z,100624.84
2019-06-20T19:14:17.893Z,100645.42
2019-06-20T19:22:36.773Z,100631.17
2019-06-20T19:30:55.849Z,100646.06
2019-06-20T19:39:14.541Z,100648.86
2019-06-20T19:47:33.305Z,100650.39
2019-06-20T19:55:52.252Z,100653.38
2019-06-20T20:04:10.950Z,100660.67
2019-06-20T20:12:29.920Z,100668.90
2019-06-20T20:20:48.978Z,100686.70
2019-06-20T20:29:07.647Z,100686.45
2019-06-20T20:37:26.709Z,100695.81
2019-06-20T20:45:45.464Z,100681.27
2019-06-20T20:54:04.178Z,100692.53
2019-06-20T21:02:22.844Z,100686.39
2019-06-20T21:10:41.538Z,100692.39
2019-06-20T21:19:00.559Z,100706.98
2019-06-20T21:27:19.458Z,100721.31
2019-06-20T21:35:38.107Z,100728.02
2019-06-20T21:43:56.812Z,100735.13
2019-06-20T21:52:15.559Z,100736.81
2019-06-20T22:00:39.857Z,100742.02
2019-06-20T22:08:58.573Z,100756.81
2019-06-20T22:17:17.254Z,100781.96
2019-06-20T22:25:35.993Z,100749.03
2019-06-20T22:33:54.661Z,100744.55
2019-06-20T22:42:13.347Z,100732.92
2019-06-20T22:50:32.006Z,100732.92
2019-06-20T22:58:50.685Z,100727.39
2019-06-20T23:07:09.387Z,100727.46
2019-06-20T23:15:28.099Z,100752.01
2019-06-20T23:23:47.067Z,100765.44
2019-06-20T23:32:05.755Z,100772.02
2019-06-20T23:40:24.431Z,100769.41
2019-06-20T23:48:43.481Z,100786.28
2019-06-20T23:57:02.262Z,100798.94
